Terminal Aerodrome Forecast
Issued by NWS Albany, NY

Home | Current Version | Previous Version | Text Only | Print | Product List | Glossary On
Versions: 1 2 3 4 5 6 7 8 9 10 11 12 13 14 15 16 17 18 19 20 21 22 23 24 25 26
000
FTUS41 KALY 211159 AAA
TAFGFL
TAF AMD
KGFL 211159Z 2112/2212 00000KT P6SM BKN250
     FM211600 21008KT P6SM SCT050 SCT250
     FM212300 VRB03KT P6SM FEW050 SCT250
     FM220400 00000KT 4SM BR SCT250
     FM220800 00000KT 1 1/2SM BR VV003=

USA.gov is the U.S. government's official web portal to all federal, state and local government web resources and services.